Sheridan Park, Washington
Current Conditions -  °F | °C
As of 4:55 PM on Saturday 25 Oct 2014 (Local Time) from KPWT Reporting Station
Overcast Overcast  
Wind Chill: 57°   Ceiling: 3600
Heat Index: 57°   Visibility: 10mi
Dew Point: 54°   Wind: 15mph
Humidity: 88%   Direction: 180°S
Pressure: 29.27"   Gusts: 18mph
Location:  47.6314°N, 122.638°W
Report Text: KPWT 252355Z AUTO 18013G16KT 140V200 10SM BKN036 OVC044 14/12 A2927 RMK AO1 P0001 60013 10140 20110 401400060 57027
Loading
Personal Weather Stations






























Interactive Weather Map New forecast layout! Learn more

10-Day Weather Forecast

Advertisements
Track Severe Weather on mobile